Watertown International Airport
KART : now visible

Airfield :











YOU CAN JOIN US ON...

 
LOGIN :

Register | Disclaimer

   EN    FR    IT 

 









Legend :    VFR   Marginal VFR   IFR   Intensive IFR   Very Intensive IFR
Visi :
Ceiling :
>= 8 km
>= 3000ft
5 to 8 km
1000 to 3000 ft
1500m to 5 km
500 to 1000 ft
800 to 1500m
200 to 500 ft
< 800m
< 200 ft
Symbols :   Thunderstorms  Fog  Heavy snow  Heavy precipitations  Wind > 20 kt






- Airport Elevation : 325 ft
- IATA code : ART


KART - Watertown International

CURRENT METAR :
  • 231656Z AUTO 24010KT 10SM CLR 19/05 A3019 RMK AO2 SLP221 T01890050 $

EXPIRED METARs :
  • 231556Z AUTO 24009KT 10SM CLR 18/07 A3018 RMK AO2 SLP218 T01780072 $
  • 231456Z AUTO 25010KT 10SM FEW001 17/08 A3017 RMK AO2 SLP214 T01720078 51011 $

TAF KART
Valid from the 23 at 18:00 until the 24 at 18:00 UTC


231726Z 2318/2418 24010KT P6SM SKC
TEMPO 2318/2321 24010G18KT
FM232100 23008KT P6SM SKC
FM240000 19005KT P6SM SKC
FM241200 19010KT P6SM SKC
FM241500 20010G18KT P6SM SCT250
KZBW FIR / North America



MET'MAP, your aeronautical weather chart ! - Copyright ORBIFLY December 2007 - Disclaimer

ORBIFLY MET'MAP TEAM :

Programming & Development : Alexandra Zaïnal
Concept & original design : Baudouin d'Aumeries
Assistance for programming : Marc-Olivier Méhu
Technical & hardware support : Manuel Goepfert

Contact : metmap@orbifly.com




SOURCES & CREDITS :

   NOAA       Earth
Advisory